createdAt,value
2023-04-29T00:01:32.282Z,8.00
2023-04-29T00:03:59.276Z,7.90
2023-04-29T00:06:26.562Z,8.00
2023-04-29T00:08:53.392Z,8.00
2023-04-29T00:11:20.524Z,8.00
2023-04-29T00:13:47.345Z,8.00
2023-04-29T00:16:14.189Z,8.00
2023-04-29T00:18:41.174Z,8.00
2023-04-29T00:21:08.031Z,8.00
2023-04-29T00:23:35.385Z,8.00
2023-04-29T00:26:02.606Z,8.00
2023-04-29T00:28:29.621Z,8.00
2023-04-29T00:30:57.185Z,8.00
2023-04-29T00:33:24.307Z,8.00
2023-04-29T00:35:51.370Z,8.00
2023-04-29T00:38:25.102Z,8.00
2023-04-29T00:40:52.352Z,8.00
2023-04-29T00:43:19.172Z,8.00
2023-04-29T00:45:47.076Z,8.00
2023-04-29T00:48:15.310Z,8.00
2023-04-29T00:50:42.318Z,8.00
2023-04-29T00:53:12.903Z,8.00
2023-04-29T00:55:41.624Z,8.00
2023-04-29T00:58:10.477Z,8.00
2023-04-29T01:00:38.548Z,8.00
2023-04-29T01:03:06.054Z,8.00
2023-04-29T01:05:33.981Z,8.00
2023-04-29T01:08:24.215Z,8.10
2023-04-29T01:11:11.045Z,8.00
2023-04-29T01:13:50.183Z,8.10
2023-04-29T01:16:25.357Z,8.00
2023-04-29T01:18:59.024Z,8.00
2023-04-29T01:21:26.227Z,8.10
2023-04-29T01:23:56.282Z,8.00
2023-04-29T01:26:25.894Z,8.00
2023-04-29T01:29:16.666Z,8.00
2023-04-29T01:32:04.992Z,8.00
2023-04-29T01:35:00.803Z,8.00
2023-04-29T01:37:57.786Z,8.00
2023-04-29T01:40:30.373Z,8.00
2023-04-29T01:43:01.695Z,8.00
2023-04-29T01:45:30.088Z,8.00
2023-04-29T01:47:58.779Z,7.90
2023-04-29T01:50:25.988Z,7.90
2023-04-29T01:52:52.932Z,7.90
2023-04-29T01:55:19.959Z,7.90
2023-04-29T01:57:46.930Z,7.90
2023-04-29T02:00:13.808Z,7.90
2023-04-29T02:02:41.045Z,7.90
2023-04-29T02:05:09.956Z,7.90
2023-04-29T02:07:38.880Z,7.90
2023-04-29T02:10:07.321Z,7.90
2023-04-29T02:12:34.661Z,7.90
2023-04-29T02:15:02.584Z,7.90
2023-04-29T02:17:29.411Z,7.90
2023-04-29T02:19:56.144Z,7.90
2023-04-29T02:22:23.001Z,7.90
2023-04-29T02:24:49.984Z,7.90
2023-04-29T02:27:17.077Z,7.90
2023-04-29T02:29:43.959Z,7.90
2023-04-29T02:32:10.893Z,7.90
2023-04-29T02:34:38.471Z,7.90
2023-04-29T02:37:05.360Z,7.80
2023-04-29T02:39:32.289Z,7.90
2023-04-29T02:41:59.004Z,7.80
2023-04-29T02:44:26.045Z,7.80
2023-04-29T02:46:53.302Z,7.80
2023-04-29T02:49:20.257Z,7.80
2023-04-29T02:51:49.666Z,7.80
2023-04-29T02:54:17.717Z,7.80
2023-04-29T02:56:44.760Z,7.80
2023-04-29T02:59:11.683Z,7.80
2023-04-29T03:01:38.925Z,7.70
2023-04-29T03:04:06.865Z,7.70
2023-04-29T03:06:34.186Z,7.70
2023-04-29T03:09:01.254Z,7.70
2023-04-29T03:11:28.409Z,7.70
2023-04-29T03:13:55.500Z,7.70
2023-04-29T03:16:23.286Z,7.70
2023-04-29T03:18:50.359Z,7.70
2023-04-29T03:21:18.678Z,7.70
2023-04-29T03:23:45.503Z,7.70
2023-04-29T03:26:12.406Z,7.60
2023-04-29T03:28:40.402Z,7.60
2023-04-29T03:31:07.358Z,7.60
2023-04-29T03:33:35.362Z,7.60
2023-04-29T03:36:02.949Z,7.60
2023-04-29T03:38:30.024Z,7.60
2023-04-29T03:40:56.816Z,7.50
2023-04-29T03:43:24.878Z,7.60
2023-04-29T03:45:51.805Z,7.50
2023-04-29T03:48:20.308Z,7.50
2023-04-29T03:50:47.496Z,7.50
2023-04-29T03:53:15.303Z,7.50
2023-04-29T03:55:42.138Z,7.50
2023-04-29T03:58:09.866Z,7.50
2023-04-29T04:00:36.900Z,7.50
2023-04-29T04:03:05.569Z,7.50
2023-04-29T04:05:32.948Z,7.50
2023-04-29T04:08:00.842Z,7.50
2023-04-29T04:10:30.123Z,7.50
2023-04-29T04:12:57.088Z,7.60
2023-04-29T04:15:24.412Z,7.60
2023-04-29T04:17:51.406Z,7.70
2023-04-29T04:20:18.276Z,7.70
2023-04-29T04:22:45.063Z,7.80
2023-04-29T04:25:12.024Z,7.90
2023-04-29T04:27:41.238Z,7.90
2023-04-29T04:30:10.507Z,7.90
2023-04-29T04:32:39.281Z,8.00
2023-04-29T04:35:12.474Z,8.00
2023-04-29T04:37:39.391Z,8.10
2023-04-29T04:40:07.346Z,8.20
2023-04-29T04:42:34.290Z,8.20
2023-04-29T04:45:01.449Z,8.30
2023-04-29T04:47:28.250Z,8.30
2023-04-29T04:49:55.401Z,8.30
2023-04-29T04:52:22.708Z,8.30
2023-04-29T04:54:49.790Z,8.40
2023-04-29T04:57:16.618Z,8.40
2023-04-29T04:59:43.489Z,8.50
2023-04-29T05:02:11.600Z,8.60
2023-04-29T05:04:39.561Z,8.60
2023-04-29T05:07:06.439Z,8.60
2023-04-29T05:09:35.746Z,8.70
2023-04-29T05:12:02.914Z,8.80
2023-04-29T05:14:29.766Z,8.80
2023-04-29T05:17:00.451Z,8.90
2023-04-29T05:19:27.496Z,8.90
2023-04-29T05:21:54.232Z,9.00
2023-04-29T05:24:21.204Z,9.00
2023-04-29T05:26:52.032Z,9.10
2023-04-29T05:29:21.078Z,9.20
2023-04-29T05:31:48.006Z,9.20
2023-04-29T05:34:15.202Z,9.30
2023-04-29T05:36:41.955Z,9.40
2023-04-29T05:39:10.021Z,9.40
2023-04-29T05:41:36.803Z,9.60
2023-04-29T05:44:03.754Z,9.60
2023-04-29T05:46:31.875Z,9.70
2023-04-29T05:48:58.856Z,9.80
2023-04-29T05:51:26.159Z,9.90
2023-04-29T05:53:59.456Z,10.00
2023-04-29T05:56:28.376Z,10.10
2023-04-29T05:58:59.499Z,10.20
2023-04-29T06:01:32.992Z,10.30
2023-04-29T06:03:59.987Z,10.40
2023-04-29T06:06:27.277Z,10.40
2023-04-29T06:09:01.067Z,10.50
2023-04-29T06:11:28.141Z,10.60
2023-04-29T06:13:56.220Z,10.70
2023-04-29T06:16:25.487Z,10.70
2023-04-29T06:18:53.603Z,10.70
2023-04-29T06:21:22.533Z,10.80
2023-04-29T06:23:51.607Z,10.90
2023-04-29T06:26:20.975Z,10.90
2023-04-29T06:28:50.257Z,11.10
2023-04-29T06:31:17.489Z,11.10
2023-04-29T06:33:44.486Z,11.20
2023-04-29T06:36:11.194Z,11.30
2023-04-29T06:38:38.376Z,11.40
2023-04-29T06:41:08.262Z,11.50
2023-04-29T06:43:35.074Z,11.60
2023-04-29T06:46:09.963Z,11.80
2023-04-29T06:48:55.267Z,11.90
2023-04-29T06:51:22.052Z,12.10
2023-04-29T06:53:49.266Z,12.20
2023-04-29T06:56:17.146Z,12.40
2023-04-29T06:58:45.401Z,12.50
2023-04-29T07:01:14.338Z,12.70
2023-04-29T07:03:41.227Z,12.90
2023-04-29T07:06:10.305Z,13.10
2023-04-29T07:08:37.277Z,13.20
2023-04-29T07:11:04.482Z,13.40
2023-04-29T07:13:32.369Z,13.50
2023-04-29T07:15:59.439Z,13.70
2023-04-29T07:18:26.328Z,13.80
2023-04-29T07:20:53.532Z,14.00
2023-04-29T07:23:20.680Z,14.10
2023-04-29T07:25:47.891Z,14.30
2023-04-29T07:28:17.265Z,14.40
2023-04-29T07:30:44.348Z,14.50
2023-04-29T07:33:12.277Z,14.60
2023-04-29T07:35:43.285Z,14.60
2023-04-29T07:38:10.402Z,14.70
2023-04-29T07:40:45.190Z,14.80
2023-04-29T07:43:14.097Z,14.80
2023-04-29T07:45:46.684Z,14.90
2023-04-29T07:48:13.637Z,14.90
2023-04-29T07:50:40.458Z,15.00
2023-04-29T07:53:07.469Z,15.10
2023-04-29T07:55:37.900Z,15.10
2023-04-29T07:58:05.021Z,15.10
2023-04-29T08:00:34.179Z,15.20
2023-04-29T08:03:01.230Z,15.30
2023-04-29T08:05:31.922Z,15.30
2023-04-29T08:07:59.286Z,15.40
2023-04-29T08:10:28.394Z,15.40
2023-04-29T08:12:56.144Z,15.40
2023-04-29T08:15:25.164Z,15.50
2023-04-29T08:17:52.107Z,15.50
2023-04-29T08:20:20.146Z,15.60
2023-04-29T08:22:47.262Z,15.70
2023-04-29T08:25:14.239Z,15.70
2023-04-29T08:27:43.657Z,15.70
2023-04-29T08:30:10.954Z,15.60
2023-04-29T08:32:39.976Z,15.60
2023-04-29T08:35:07.708Z,15.60
2023-04-29T08:37:34.444Z,15.60
2023-04-29T08:40:01.935Z,15.60
2023-04-29T08:42:38.093Z,15.50
2023-04-29T08:45:05.607Z,15.60
2023-04-29T08:47:33.761Z,15.60
2023-04-29T08:50:05.331Z,15.70
2023-04-29T08:52:32.968Z,15.70
2023-04-29T08:55:02.564Z,15.80
2023-04-29T08:57:39.498Z,15.80
2023-04-29T09:00:10.251Z,15.90
2023-04-29T09:02:46.250Z,15.90
2023-04-29T09:05:13.332Z,16.00
2023-04-29T09:07:41.738Z,16.00
2023-04-29T09:10:09.497Z,16.00
2023-04-29T09:12:36.912Z,16.10
2023-04-29T09:15:04.503Z,16.20
2023-04-29T09:17:42.193Z,16.20
2023-04-29T09:20:28.037Z,16.30
2023-04-29T09:23:01.873Z,16.40
2023-04-29T09:25:29.244Z,16.40
2023-04-29T09:27:56.170Z,16.50
2023-04-29T09:30:23.603Z,16.60
2023-04-29T09:33:10.161Z,16.60
2023-04-29T09:35:40.417Z,16.60
2023-04-29T09:38:12.983Z,16.70
2023-04-29T09:40:57.428Z,16.80
2023-04-29T09:43:25.020Z,16.90
2023-04-29T09:45:51.950Z,17.00
2023-04-29T09:48:18.869Z,17.10
2023-04-29T09:51:02.357Z,17.10
2023-04-29T09:53:31.603Z,17.10
2023-04-29T09:56:03.931Z,17.20
2023-04-29T09:58:38.098Z,17.20
2023-04-29T10:01:06.409Z,17.30
2023-04-29T10:03:38.652Z,17.30
2023-04-29T10:06:07.211Z,17.30
2023-04-29T10:08:35.771Z,17.40
2023-04-29T10:11:04.253Z,17.40
2023-04-29T10:13:33.170Z,17.50
2023-04-29T10:16:14.265Z,17.50
2023-04-29T10:18:44.879Z,17.60
2023-04-29T10:21:12.920Z,17.70
2023-04-29T10:23:42.005Z,17.80
2023-04-29T10:26:13.502Z,17.90
2023-04-29T10:28:42.217Z,18.10
2023-04-29T10:31:09.553Z,18.20
2023-04-29T10:33:37.490Z,18.30
2023-04-29T10:36:04.969Z,18.50
2023-04-29T10:38:36.630Z,18.60
2023-04-29T10:41:28.367Z,18.70
2023-04-29T10:43:56.166Z,18.80
2023-04-29T10:46:24.535Z,18.80
2023-04-29T10:48:56.407Z,18.80
2023-04-29T10:51:33.286Z,18.70
2023-04-29T10:54:08.288Z,18.70
2023-04-29T10:56:38.399Z,18.60
2023-04-29T10:59:05.529Z,18.60
2023-04-29T11:01:54.839Z,18.70
2023-04-29T11:04:22.990Z,18.70
2023-04-29T11:06:55.058Z,18.80
2023-04-29T11:09:26.620Z,18.70
2023-04-29T11:11:58.356Z,18.90
2023-04-29T11:14:30.076Z,19.00
2023-04-29T11:17:03.164Z,19.10
2023-04-29T11:19:41.562Z,19.20
2023-04-29T11:22:17.650Z,19.30
2023-04-29T11:24:58.317Z,19.40
2023-04-29T11:27:27.041Z,19.40
2023-04-29T11:29:59.084Z,19.40
2023-04-29T11:32:31.063Z,19.20
2023-04-29T11:35:18.149Z,19.20
2023-04-29T11:37:46.974Z,19.40
2023-04-29T11:40:14.774Z,19.60
2023-04-29T11:42:46.646Z,19.80
2023-04-29T11:45:13.811Z,20.00
2023-04-29T11:47:47.295Z,20.40
2023-04-29T11:50:17.909Z,21.10
2023-04-29T11:52:46.870Z,21.90
2023-04-29T11:55:14.689Z,22.90
2023-04-29T11:57:41.793Z,23.70
2023-04-29T12:00:14.807Z,24.50
2023-04-29T12:02:46.377Z,25.00
2023-04-29T12:05:15.287Z,25.20
2023-04-29T12:07:43.262Z,25.40
2023-04-29T12:10:11.174Z,25.60
2023-04-29T12:12:43.665Z,26.00
2023-04-29T12:15:10.959Z,26.40
2023-04-29T12:17:38.710Z,26.60
2023-04-29T12:20:07.684Z,26.40
2023-04-29T12:22:35.198Z,25.80
2023-04-29T12:25:07.850Z,25.20
2023-04-29T12:27:36.503Z,24.40
2023-04-29T12:30:08.256Z,23.90
2023-04-29T12:32:35.570Z,23.40
2023-04-29T12:35:02.494Z,23.20
2023-04-29T12:37:29.598Z,23.20
2023-04-29T12:39:57.384Z,23.20
2023-04-29T12:42:24.355Z,23.30
2023-04-29T12:44:51.354Z,23.40
2023-04-29T12:47:18.709Z,23.50
2023-04-29T12:49:48.126Z,23.60
2023-04-29T12:52:16.052Z,23.80
2023-04-29T12:54:44.380Z,24.10
2023-04-29T12:57:12.408Z,24.90
2023-04-29T12:59:41.517Z,25.70
2023-04-29T13:02:08.691Z,26.40
2023-04-29T13:04:35.881Z,27.00
2023-04-29T13:07:04.364Z,27.60
2023-04-29T13:09:32.213Z,28.10
2023-04-29T13:11:59.657Z,28.10
2023-04-29T13:14:27.010Z,27.80
2023-04-29T13:16:54.134Z,27.30
2023-04-29T13:19:30.541Z,26.70
2023-04-29T13:22:06.768Z,26.10
2023-04-29T13:24:35.928Z,25.60
2023-04-29T13:27:05.983Z,25.60
2023-04-29T13:29:33.025Z,25.70
2023-04-29T13:31:59.931Z,25.70
2023-04-29T13:34:26.946Z,25.80
2023-04-29T13:36:53.689Z,25.70
2023-04-29T13:39:23.097Z,25.50
2023-04-29T13:41:50.167Z,25.00
2023-04-29T13:44:27.339Z,24.50
2023-04-29T13:47:01.538Z,23.90
2023-04-29T13:50:01.888Z,23.30
2023-04-29T13:53:07.191Z,22.70
2023-04-29T14:00:19.336Z,21.40
2023-04-29T14:05:21.175Z,20.80
2023-04-29T14:07:48.277Z,20.60
2023-04-29T14:10:15.952Z,20.40
2023-04-29T14:12:42.725Z,20.20
2023-04-29T14:15:10.109Z,20.10
2023-04-29T14:17:37.296Z,19.90
2023-04-29T14:20:04.545Z,19.70
2023-04-29T14:22:31.293Z,19.70
2023-04-29T14:24:58.119Z,19.60
2023-04-29T14:27:25.025Z,19.70
2023-04-29T14:29:51.809Z,19.70
2023-04-29T14:32:18.698Z,19.70
2023-04-29T14:34:45.937Z,19.70
2023-04-29T14:37:12.926Z,19.80
2023-04-29T14:39:39.891Z,19.80
2023-04-29T14:42:06.902Z,19.80
2023-04-29T14:44:34.048Z,19.80
2023-04-29T14:47:00.956Z,19.80
2023-04-29T14:49:29.519Z,19.70
2023-04-29T14:51:58.052Z,19.70
2023-04-29T14:54:27.104Z,19.60
2023-04-29T14:56:54.244Z,19.60
2023-04-29T14:59:21.122Z,19.50
2023-04-29T15:01:48.801Z,19.50
2023-04-29T15:04:16.135Z,19.50
2023-04-29T15:06:43.544Z,19.40
2023-04-29T15:09:10.599Z,19.30
2023-04-29T15:11:37.504Z,19.30
2023-04-29T15:14:04.557Z,19.30
2023-04-29T15:16:31.708Z,19.20
2023-04-29T15:18:59.296Z,19.20
2023-04-29T15:21:27.134Z,19.20
2023-04-29T15:23:54.197Z,19.20
2023-04-29T15:26:21.909Z,19.10
2023-04-29T15:28:49.140Z,19.10
2023-04-29T15:31:16.073Z,19.00
2023-04-29T15:33:43.469Z,18.90
2023-04-29T15:36:10.743Z,18.90
2023-04-29T15:38:37.552Z,18.80
2023-04-29T15:41:05.678Z,18.60
2023-04-29T15:43:33.458Z,18.50
2023-04-29T15:46:00.732Z,18.50
2023-04-29T15:48:28.612Z,18.40
2023-04-29T15:50:55.404Z,18.40
2023-04-29T15:53:23.298Z,18.40
2023-04-29T15:55:50.591Z,18.40
2023-04-29T15:58:17.575Z,18.40
2023-04-29T16:00:44.316Z,18.40
2023-04-29T16:03:11.348Z,18.30
2023-04-29T16:05:38.741Z,18.30
2023-04-29T16:08:05.913Z,18.20
2023-04-29T16:10:32.796Z,18.20
2023-04-29T16:12:59.908Z,18.20
2023-04-29T16:15:27.748Z,18.20
2023-04-29T16:17:55.089Z,18.20
2023-04-29T16:20:22.427Z,18.10
2023-04-29T16:22:50.276Z,18.00
2023-04-29T16:25:17.571Z,18.00
2023-04-29T16:27:44.422Z,17.90
2023-04-29T16:30:11.670Z,17.80
2023-04-29T16:32:38.625Z,17.70
2023-04-29T16:35:05.721Z,17.60
2023-04-29T16:37:32.818Z,17.50
2023-04-29T16:40:00.399Z,17.40
2023-04-29T16:42:27.350Z,17.30
2023-04-29T16:44:54.190Z,17.20
2023-04-29T16:47:21.672Z,17.10
2023-04-29T16:49:48.486Z,17.10
2023-04-29T16:52:15.438Z,17.10
2023-04-29T16:54:42.546Z,17.00
2023-04-29T16:57:09.327Z,17.00
2023-04-29T16:59:36.161Z,17.00
2023-04-29T17:02:03.205Z,16.90
2023-04-29T17:04:33.497Z,16.90
2023-04-29T17:07:01.602Z,16.80
2023-04-29T17:09:28.527Z,16.70
2023-04-29T17:11:55.355Z,16.70
2023-04-29T17:14:22.395Z,16.60
2023-04-29T17:16:49.383Z,16.60
2023-04-29T17:19:16.791Z,16.50
2023-04-29T17:21:43.736Z,16.50
2023-04-29T17:24:10.836Z,16.50
2023-04-29T17:26:37.646Z,16.50
2023-04-29T17:29:04.457Z,16.50
2023-04-29T17:31:45.002Z,16.40
2023-04-29T17:34:19.796Z,16.40
2023-04-29T17:36:47.657Z,16.40
2023-04-29T17:39:14.907Z,16.30
2023-04-29T17:41:42.171Z,16.30
2023-04-29T17:44:09.716Z,16.30
2023-04-29T17:46:37.305Z,16.30
2023-04-29T17:49:04.745Z,16.30
2023-04-29T17:51:34.780Z,16.30
2023-04-29T17:54:04.734Z,16.30
2023-04-29T17:56:35.290Z,16.20
2023-04-29T17:59:03.667Z,16.20
2023-04-29T18:01:30.793Z,16.00
2023-04-29T18:03:57.830Z,16.00
2023-04-29T18:06:24.924Z,15.80
2023-04-29T18:08:52.028Z,15.70
2023-04-29T18:11:18.943Z,15.60
2023-04-29T18:13:45.718Z,15.60
2023-04-29T18:16:12.600Z,15.50
2023-04-29T18:18:39.716Z,15.40
2023-04-29T18:21:06.778Z,15.40
2023-04-29T18:23:33.712Z,15.30
2023-04-29T18:26:00.707Z,15.30
2023-04-29T18:28:29.281Z,15.30
2023-04-29T18:30:57.058Z,15.20
2023-04-29T18:33:25.288Z,15.20
2023-04-29T18:35:52.433Z,15.20
2023-04-29T18:38:19.386Z,15.10
2023-04-29T18:40:46.367Z,15.10
2023-04-29T18:43:17.146Z,15.10
2023-04-29T18:45:47.044Z,15.10
2023-04-29T18:48:15.131Z,15.00
2023-04-29T18:50:42.501Z,15.00
2023-04-29T18:53:09.542Z,15.00
2023-04-29T18:55:36.532Z,15.00
2023-04-29T18:58:03.409Z,15.00
2023-04-29T19:00:30.506Z,15.00
2023-04-29T19:02:58.351Z,15.00
2023-04-29T19:05:25.121Z,15.00
2023-04-29T19:07:51.942Z,14.90
2023-04-29T19:10:19.002Z,15.00
2023-04-29T19:12:46.311Z,15.00
2023-04-29T19:15:13.376Z,15.00
2023-04-29T19:17:40.314Z,15.00
2023-04-29T19:20:08.122Z,14.90
2023-04-29T19:22:35.401Z,15.00
2023-04-29T19:25:02.718Z,15.00
2023-04-29T19:27:29.564Z,14.90
2023-04-29T19:29:56.576Z,15.00
2023-04-29T19:32:23.596Z,15.00
2023-04-29T19:34:50.835Z,15.00
2023-04-29T19:37:17.607Z,15.00
2023-04-29T19:39:44.549Z,14.90
2023-04-29T19:42:12.470Z,14.90
2023-04-29T19:44:39.410Z,14.90
2023-04-29T19:47:06.327Z,14.90
2023-04-29T19:49:33.934Z,14.90
2023-04-29T19:52:02.122Z,14.80
2023-04-29T19:54:29.222Z,14.80
2023-04-29T19:56:56.208Z,14.80
2023-04-29T19:59:23.254Z,14.80
2023-04-29T20:01:51.445Z,14.80
2023-04-29T20:04:18.522Z,14.80
2023-04-29T20:06:46.153Z,14.80
2023-04-29T20:09:14.898Z,14.80
2023-04-29T20:11:41.717Z,14.80
2023-04-29T20:14:09.550Z,14.80
2023-04-29T20:16:36.582Z,14.80
2023-04-29T20:19:03.437Z,14.80
2023-04-29T20:21:30.262Z,14.80
2023-04-29T20:23:57.186Z,14.70
2023-04-29T20:26:24.089Z,14.80
2023-04-29T20:28:50.900Z,14.70
2023-04-29T20:31:17.760Z,14.80
2023-04-29T20:33:44.565Z,14.70
2023-04-29T20:36:11.367Z,14.80
2023-04-29T20:38:38.268Z,14.70
2023-04-29T20:41:08.376Z,14.70
2023-04-29T20:43:35.416Z,14.70
2023-04-29T20:46:03.056Z,14.70
2023-04-29T20:48:30.004Z,14.70
2023-04-29T20:50:56.786Z,14.60
2023-04-29T20:53:23.642Z,14.60
2023-04-29T20:55:50.516Z,14.60
2023-04-29T20:58:17.525Z,14.60
2023-04-29T21:00:45.123Z,14.50
2023-04-29T21:03:12.032Z,14.50
2023-04-29T21:05:39.159Z,14.50
2023-04-29T21:08:06.197Z,14.50
2023-04-29T21:10:33.101Z,14.50
2023-04-29T21:12:59.993Z,14.50
2023-04-29T21:15:29.201Z,14.50
2023-04-29T21:17:56.737Z,14.40
2023-04-29T21:20:24.012Z,14.50
2023-04-29T21:22:51.006Z,14.40
2023-04-29T21:25:18.097Z,14.40
2023-04-29T21:27:45.081Z,14.40
2023-04-29T21:30:12.366Z,14.30
2023-04-29T21:32:39.466Z,14.20
2023-04-29T21:35:06.777Z,14.20
2023-04-29T21:37:34.051Z,14.20
2023-04-29T21:40:00.953Z,14.10
2023-04-29T21:42:28.207Z,14.10
2023-04-29T21:45:00.417Z,14.10
2023-04-29T21:47:29.371Z,14.10
2023-04-29T21:49:57.201Z,14.10
2023-04-29T21:52:24.515Z,14.10
2023-04-29T21:54:51.712Z,14.10
2023-04-29T21:57:21.984Z,14.10
2023-04-29T21:59:53.522Z,14.10
2023-04-29T22:02:25.484Z,14.00
2023-04-29T22:04:53.680Z,14.00
2023-04-29T22:07:22.383Z,14.00
2023-04-29T22:09:49.815Z,14.00
2023-04-29T22:12:18.778Z,14.00
2023-04-29T22:14:46.525Z,14.00
2023-04-29T22:17:14.271Z,13.90
2023-04-29T22:19:41.340Z,13.80
2023-04-29T22:22:08.874Z,13.60
2023-04-29T22:24:35.914Z,13.60
2023-04-29T22:27:03.716Z,13.50
2023-04-29T22:29:30.556Z,13.50
2023-04-29T22:31:57.497Z,13.50
2023-04-29T22:34:24.602Z,13.50
2023-04-29T22:36:51.375Z,13.50
2023-04-29T22:39:18.725Z,13.60
2023-04-29T22:41:45.709Z,13.60
2023-04-29T22:44:12.673Z,13.60
2023-04-29T22:46:40.600Z,13.60
2023-04-29T22:49:08.741Z,13.70
2023-04-29T22:51:35.524Z,13.70
2023-04-29T22:54:02.327Z,13.70
2023-04-29T22:56:29.195Z,13.70
2023-04-29T22:58:56.083Z,13.70
2023-04-29T23:01:23.063Z,13.70
2023-04-29T23:03:49.972Z,13.70
2023-04-29T23:06:17.068Z,13.70
2023-04-29T23:08:47.149Z,13.80
2023-04-29T23:11:13.892Z,13.70
2023-04-29T23:13:40.833Z,13.80
2023-04-29T23:16:10.614Z,13.70
2023-04-29T23:18:37.857Z,13.80
2023-04-29T23:21:04.894Z,13.70
2023-04-29T23:23:31.771Z,13.60
2023-04-29T23:25:58.794Z,13.60
2023-04-29T23:28:25.941Z,13.60
2023-04-29T23:30:53.341Z,13.50
2023-04-29T23:33:20.449Z,13.50
2023-04-29T23:35:53.857Z,13.40
2023-04-29T23:38:20.722Z,13.30
2023-04-29T23:40:47.697Z,13.30
2023-04-29T23:43:18.235Z,13.30
2023-04-29T23:45:46.133Z,13.20
2023-04-29T23:48:13.985Z,13.20
2023-04-29T23:50:40.840Z,13.20
2023-04-29T23:53:07.888Z,13.10
2023-04-29T23:55:34.754Z,13.10
2023-04-29T23:58:01.665Z,13.20
